MV Moseldijk — PBWK — position and weather

sailwx.info

Track history (hours):
 
Tides and Currents Weather Stations Pressure Air Temp Water Temp Dewpoint Dewpoint Depression Visibility Wind Speed Wind Dir Waves Ship Positions

MV Moseldijk

Last reported at 2017-Mar-22 11:31 UTC. Time now 2017-Mar-28 15:51 UTC.
Position N 50°09' W 001°55'.

Length 90 m; draft 4.2 m.

Type: Cargo ship. MMSI: 246644000.

Date/timePositionNaut miles runAvg speedWind from/ knotsBaromVisibWave heightAir tempDewpointWater temp
2017-Mar-22 11:31N 50°09' W 001°55'1010.1
2017-Mar-22 10:32N 50°12' W 001°40'1010.1
2017-Mar-22 09:33N 50°15' W 001°25'41 9.2
2017-Mar-22 05:07N 50°26' W 000°24'5 8.9
2017-Mar-22 04:32N 50°28' W 000°17'9 9.3
2017-Mar-22 03:33N 50°30' W 000°03'10 9.5
2017-Mar-22 02:32N 50°33' E 000°12'10 9.8
2017-Mar-22 01:32N 50°36' E 000°27'1010.4
2017-Mar-22 00:33N 50°41' E 000°41'1111.0
2017-Mar-21 23:32N 50°48' E 000°55'1311.2
2017-Mar-21 22:23N 50°56' E 001°11'911.0
2017-Mar-21 21:33N 51°02' E 001°22'1010.4
2017-Mar-21 20:33N 51°08' E 001°34'10 9.6
2017-Mar-21 19:33N 51°15' E 001°46'9 9.4
2017-Mar-21 18:33N 51°22' E 001°55'8 7.7
2017-Mar-21 17:33N 51°24' E 002°07'9 9.2
2017-Mar-21 16:33N 51°22' E 002°22'1010.5
2017-Mar-21 15:33N 51°22' E 002°38'1110.9
2017-Mar-21 14:33N 51°22' E 002°56'1211.6
2017-Mar-21 13:33N 51°23' E 003°14'12 0.3
2017-Mar-19 21:32N 51°25' E 003°34'8 8.7
2017-Mar-19 20:34N 51°24' E 003°20'1110.8
2017-Mar-19 19:34N 51°24' E 003°03'1211.7
2017-Mar-19 18:34N 51°22' E 002°44'1110.7
2017-Mar-19 17:34N 51°21' E 002°27'1212.0
2017-Mar-19 16:33N 51°15' E 002°11'1313.2
2017-Mar-19 15:33N 51°08' E 001°53'1313.4
2017-Mar-19 14:34N 50°59' E 001°37'7510.8
2017-Mar-19 07:33N 50°19' W 000°03'10 9.9
2017-Mar-19 06:32N 50°16' W 000°19'10 9.6
2017-Mar-19 05:32N 50°14' W 000°33'3210.3
2017-Mar-19 02:24N 50°04' W 001°21'1012.4
2017-Mar-19 01:33N 50°01' W 001°37'1313.3
2017-Mar-19 00:33N 49°58' W 001°57'13911.2
2017-Mar-18 12:12N 48°56' W 005°08'  
2017-Mar-14 06:32N 39°25' W 009°45'8 8.4
2017-Mar-14 05:33N 39°17' W 009°44'8 8.1
2017-Mar-14 04:34N 39°09' W 009°43'8 8.4
2017-Mar-14 03:34N 39°00' W 009°43'8 8.3
2017-Mar-14 02:33N 38°52' W 009°42'8 8.0
2017-Mar-14 01:34N 38°44' W 009°42'7 7.2
2017-Mar-14 00:33N 38°38' W 009°37'1010.4
2017-Mar-13 23:34N 38°37' W 009°24'1010.0
2017-Mar-13 22:33N 38°41' W 009°12'  
Track history (hours):
 
Tides and Currents Weather Stations Pressure Air Temp Water Temp Dewpoint Dewpoint Depression Visibility Wind Speed Wind Dir Waves Ship Positions

MV Moseldijk

Last reported at 2017-Mar-22 11:31 UTC. Time now 2017-Mar-28 15:51 UTC.
Position N 50°09' W 001°55'.

Length 90 m; draft 4.2 m.

Type: Cargo ship. MMSI: 246644000.

Date/timePositionNaut miles runAvg speedWind from/ knotsBaromVisibWave heightAir tempDewpointWater temp
2017-Mar-22 11:31N 50°09' W 001°55'1010.1
2017-Mar-22 10:32N 50°12' W 001°40'1010.1
2017-Mar-22 09:33N 50°15' W 001°25'41 9.2
2017-Mar-22 05:07N 50°26' W 000°24'5 8.9
2017-Mar-22 04:32N 50°28' W 000°17'9 9.3
2017-Mar-22 03:33N 50°30' W 000°03'10 9.5
2017-Mar-22 02:32N 50°33' E 000°12'10 9.8
2017-Mar-22 01:32N 50°36' E 000°27'1010.4
2017-Mar-22 00:33N 50°41' E 000°41'1111.0
2017-Mar-21 23:32N 50°48' E 000°55'1311.2
2017-Mar-21 22:23N 50°56' E 001°11'911.0
2017-Mar-21 21:33N 51°02' E 001°22'1010.4
2017-Mar-21 20:33N 51°08' E 001°34'10 9.6
2017-Mar-21 19:33N 51°15' E 001°46'9 9.4
2017-Mar-21 18:33N 51°22' E 001°55'8 7.7
2017-Mar-21 17:33N 51°24' E 002°07'9 9.2
2017-Mar-21 16:33N 51°22' E 002°22'1010.5
2017-Mar-21 15:33N 51°22' E 002°38'1110.9
2017-Mar-21 14:33N 51°22' E 002°56'1211.6
2017-Mar-21 13:33N 51°23' E 003°14'12 0.3
2017-Mar-19 21:32N 51°25' E 003°34'8 8.7
2017-Mar-19 20:34N 51°24' E 003°20'1110.8
2017-Mar-19 19:34N 51°24' E 003°03'1211.7
2017-Mar-19 18:34N 51°22' E 002°44'1110.7
2017-Mar-19 17:34N 51°21' E 002°27'1212.0
2017-Mar-19 16:33N 51°15' E 002°11'1313.2
2017-Mar-19 15:33N 51°08' E 001°53'1313.4
2017-Mar-19 14:34N 50°59' E 001°37'7510.8
2017-Mar-19 07:33N 50°19' W 000°03'10 9.9
2017-Mar-19 06:32N 50°16' W 000°19'10 9.6
2017-Mar-19 05:32N 50°14' W 000°33'3210.3
2017-Mar-19 02:24N 50°04' W 001°21'1012.4
2017-Mar-19 01:33N 50°01' W 001°37'1313.3
2017-Mar-19 00:33N 49°58' W 001°57'13911.2
2017-Mar-18 12:12N 48°56' W 005°08'  
2017-Mar-14 06:32N 39°25' W 009°45'8 8.4
2017-Mar-14 05:33N 39°17' W 009°44'8 8.1
2017-Mar-14 04:34N 39°09' W 009°43'8 8.4
2017-Mar-14 03:34N 39°00' W 009°43'8 8.3
2017-Mar-14 02:33N 38°52' W 009°42'8 8.0
2017-Mar-14 01:34N 38°44' W 009°42'7 7.2
2017-Mar-14 00:33N 38°38' W 009°37'1010.4
2017-Mar-13 23:34N 38°37' W 009°24'1010.0
2017-Mar-13 22:33N 38°41' W 009°12'  

Dump ship's entire track history